createdAt,value
2019-03-03T00:00:08.444Z,6.24
2019-03-03T00:01:08.441Z,6.29
2019-03-03T00:02:08.422Z,6.23
2019-03-03T00:03:08.410Z,6.13
2019-03-03T00:04:08.398Z,6.15
2019-03-03T00:05:08.388Z,6.23
2019-03-03T00:06:08.375Z,6.24
2019-03-03T00:07:08.370Z,6.26
2019-03-03T00:08:08.355Z,6.21
2019-03-03T00:09:08.345Z,6.26
2019-03-03T00:10:08.334Z,6.24
2019-03-03T00:11:08.325Z,6.26
2019-03-03T00:12:08.308Z,6.26
2019-03-03T00:13:08.297Z,6.26
2019-03-03T00:14:08.292Z,6.30
2019-03-03T00:15:08.282Z,6.37
2019-03-03T00:16:08.267Z,6.37
2019-03-03T00:17:08.260Z,6.34
2019-03-03T00:18:08.242Z,6.54
2019-03-03T00:19:08.237Z,6.39
2019-03-03T00:20:08.224Z,6.41
2019-03-03T00:21:08.211Z,6.46
2019-03-03T00:22:08.196Z,6.46
2019-03-03T00:23:08.188Z,6.41
2019-03-03T00:24:08.173Z,6.39
2019-03-03T00:25:08.161Z,6.36
2019-03-03T00:26:08.152Z,6.41
2019-03-03T00:27:08.147Z,6.39
2019-03-03T00:28:08.129Z,6.39
2019-03-03T00:29:08.120Z,6.54
2019-03-03T00:30:08.106Z,6.55
2019-03-03T00:31:08.097Z,6.48
2019-03-03T00:32:08.089Z,6.51
2019-03-03T00:33:08.073Z,6.49
2019-03-03T00:34:08.066Z,6.49
2019-03-03T00:35:08.049Z,6.52
2019-03-03T00:36:08.045Z,6.54
2019-03-03T00:37:08.026Z,6.51
2019-03-03T00:38:08.038Z,6.54
2019-03-03T00:39:08.025Z,6.51
2019-03-03T00:40:08.026Z,6.45
2019-03-03T00:41:08.031Z,6.51
2019-03-03T00:42:07.977Z,6.52
2019-03-03T00:43:07.975Z,6.55
2019-03-03T00:44:07.985Z,6.49
2019-03-03T00:45:07.985Z,6.62
2019-03-03T00:46:07.926Z,6.62
2019-03-03T00:47:07.914Z,6.69
2019-03-03T00:48:07.903Z,6.54
2019-03-03T00:49:07.892Z,6.62
2019-03-03T00:50:07.886Z,6.60
2019-03-03T00:51:07.870Z,6.72
2019-03-03T00:52:07.861Z,6.64
2019-03-03T00:53:07.849Z,6.64
2019-03-03T00:54:07.841Z,6.67
2019-03-03T00:55:07.830Z,6.69
2019-03-03T00:56:07.816Z,6.62
2019-03-03T00:57:07.810Z,6.67
2019-03-03T00:58:07.789Z,6.70
2019-03-03T00:59:07.783Z,6.66
2019-03-03T01:00:07.773Z,6.60
2019-03-03T01:01:07.762Z,6.69
2019-03-03T01:02:07.750Z,6.59
2019-03-03T01:03:07.736Z,6.66
2019-03-03T01:04:07.724Z,6.72
2019-03-03T01:05:07.713Z,6.66
2019-03-03T01:06:07.701Z,6.69
2019-03-03T01:07:07.692Z,6.72
2019-03-03T01:08:07.682Z,6.72
2019-03-03T01:09:07.666Z,6.69
2019-03-03T01:10:07.659Z,6.85
2019-03-03T01:11:07.645Z,6.77
2019-03-03T01:12:07.634Z,6.74
2019-03-03T01:13:07.624Z,6.81
2019-03-03T01:14:07.611Z,6.88
2019-03-03T01:15:07.601Z,6.91
2019-03-03T01:16:07.589Z,6.88
2019-03-03T01:17:07.585Z,6.80
2019-03-03T01:18:07.592Z,6.97
2019-03-03T01:19:07.555Z,6.88
2019-03-03T01:20:07.545Z,6.91
2019-03-03T01:21:07.532Z,6.90
2019-03-03T01:22:07.524Z,6.96
2019-03-03T01:23:07.511Z,6.87
2019-03-03T01:24:07.509Z,6.90
2019-03-03T01:25:07.488Z,6.91
2019-03-03T01:26:07.476Z,6.92
2019-03-03T01:27:07.465Z,6.92
2019-03-03T01:28:07.453Z,7.00
2019-03-03T01:29:07.441Z,6.99
2019-03-03T01:30:07.432Z,7.06
2019-03-03T01:31:07.421Z,7.06
2019-03-03T01:32:07.407Z,6.97
2019-03-03T01:33:07.396Z,6.97
2019-03-03T01:34:07.384Z,6.96
2019-03-03T01:35:07.372Z,6.99
2019-03-03T01:36:07.367Z,6.99
2019-03-03T01:37:07.356Z,6.97
2019-03-03T01:38:07.346Z,6.92
2019-03-03T01:39:07.337Z,7.01
2019-03-03T01:40:07.324Z,7.01
2019-03-03T01:41:07.309Z,6.91
2019-03-03T01:42:07.294Z,7.10
2019-03-03T01:43:07.283Z,7.06
2019-03-03T01:44:07.272Z,7.08
2019-03-03T01:45:07.269Z,7.01
2019-03-03T01:46:07.250Z,6.97
2019-03-03T01:47:07.239Z,6.97
2019-03-03T01:48:07.227Z,7.03
2019-03-03T01:49:07.215Z,7.03
2019-03-03T01:50:07.203Z,7.08
2019-03-03T01:51:07.192Z,7.08
2019-03-03T01:52:07.183Z,7.06
2019-03-03T01:53:07.169Z,7.00
2019-03-03T01:54:07.165Z,7.07
2019-03-03T01:55:07.150Z,7.00
2019-03-03T01:56:07.158Z,6.96
2019-03-03T01:57:07.124Z,6.96
2019-03-03T01:58:07.115Z,6.97
2019-03-03T01:59:07.105Z,6.96
2019-03-03T02:00:07.091Z,6.97
2019-03-03T02:01:07.088Z,7.01
2019-03-03T02:02:07.069Z,7.01
2019-03-03T02:03:07.058Z,6.97
2019-03-03T02:04:07.047Z,7.01
2019-03-03T02:05:07.036Z,6.99
2019-03-03T02:06:07.023Z,6.97
2019-03-03T02:07:07.012Z,7.08
2019-03-03T02:08:07.001Z,7.08
2019-03-03T02:09:06.995Z,7.08
2019-03-03T02:10:06.984Z,7.07
2019-03-03T02:11:06.967Z,7.06
2019-03-03T02:12:06.955Z,6.96
2019-03-03T02:13:06.947Z,6.96
2019-03-03T02:14:06.937Z,6.97
2019-03-03T02:15:06.930Z,7.01
2019-03-03T02:16:06.911Z,6.91
2019-03-03T02:17:06.900Z,6.97
2019-03-03T02:18:06.889Z,6.97
2019-03-03T02:19:06.878Z,7.07
2019-03-03T02:20:06.868Z,7.08
2019-03-03T02:21:06.856Z,7.08
2019-03-03T02:22:06.870Z,7.01
2019-03-03T02:23:06.833Z,7.04
2019-03-03T02:24:06.858Z,7.13
2019-03-03T02:25:06.818Z,7.10
2019-03-03T02:26:06.802Z,7.13
2019-03-03T02:27:06.787Z,7.18
2019-03-03T02:28:06.779Z,7.11
2019-03-03T02:29:06.768Z,7.18
2019-03-03T02:30:06.757Z,7.13
2019-03-03T02:31:06.744Z,7.08
2019-03-03T02:32:06.743Z,7.19
2019-03-03T02:33:06.726Z,7.24
2019-03-03T02:34:06.737Z,7.21
2019-03-03T02:35:06.699Z,7.22
2019-03-03T02:36:06.689Z,7.28
2019-03-03T02:37:06.678Z,7.29
2019-03-03T02:38:06.665Z,7.29
2019-03-03T02:39:06.653Z,7.28
2019-03-03T02:40:06.643Z,7.34
2019-03-03T02:41:06.630Z,7.37
2019-03-03T02:42:06.627Z,7.36
2019-03-03T02:43:06.611Z,7.33
2019-03-03T02:44:06.600Z,7.34
2019-03-03T02:45:06.587Z,7.34
2019-03-03T02:46:06.578Z,7.43
2019-03-03T02:47:06.566Z,7.33
2019-03-03T02:48:06.553Z,7.26
2019-03-03T02:49:06.549Z,7.26
2019-03-03T02:50:06.532Z,7.26
2019-03-03T02:51:06.518Z,7.34
2019-03-03T02:52:06.511Z,7.39
2019-03-03T02:53:06.496Z,7.34
2019-03-03T02:54:06.501Z,7.26
2019-03-03T02:55:06.474Z,7.28
2019-03-03T02:56:06.465Z,7.34
2019-03-03T02:57:06.454Z,7.37
2019-03-03T02:58:06.458Z,7.39
2019-03-03T02:59:06.432Z,7.36
2019-03-03T03:00:06.416Z,7.31
2019-03-03T03:01:06.406Z,7.39
2019-03-03T03:02:06.397Z,7.21
2019-03-03T03:03:06.384Z,7.34
2019-03-03T03:04:06.378Z,7.36
2019-03-03T03:05:06.361Z,7.36
2019-03-03T03:06:06.353Z,7.34
2019-03-03T03:07:06.338Z,7.34
2019-03-03T03:08:06.329Z,7.36
2019-03-03T03:09:06.318Z,7.37
2019-03-03T03:10:06.303Z,7.43
2019-03-03T03:11:06.292Z,7.52
2019-03-03T03:12:06.284Z,7.36
2019-03-03T03:13:06.271Z,7.47
2019-03-03T03:14:06.261Z,7.40
2019-03-03T03:15:06.314Z,7.46
2019-03-03T03:16:06.236Z,7.49
2019-03-03T03:17:06.237Z,7.49
2019-03-03T03:18:06.223Z,7.43
2019-03-03T03:19:06.201Z,7.46
2019-03-03T03:20:06.193Z,7.49
2019-03-03T03:21:06.180Z,7.49
2019-03-03T03:22:06.169Z,7.43
2019-03-03T03:23:06.160Z,7.42
2019-03-03T03:24:06.153Z,7.43
2019-03-03T03:25:06.139Z,7.42
2019-03-03T03:26:06.123Z,7.43
2019-03-03T03:27:07.308Z,7.43
2019-03-03T03:28:06.109Z,7.46
2019-03-03T03:29:06.092Z,7.47
2019-03-03T03:30:06.088Z,7.42
2019-03-03T03:31:06.067Z,7.47
2019-03-03T03:32:06.057Z,7.49
2019-03-03T03:33:06.047Z,7.44
2019-03-03T03:34:06.042Z,7.49
2019-03-03T03:35:06.020Z,7.47
2019-03-03T03:36:06.023Z,7.50
2019-03-03T03:37:06.001Z,7.46
2019-03-03T03:38:05.990Z,7.46
2019-03-03T03:39:05.988Z,7.49
2019-03-03T03:40:05.968Z,7.49
2019-03-03T03:41:05.952Z,7.54
2019-03-03T03:42:05.941Z,7.70
2019-03-03T03:43:05.931Z,7.64
2019-03-03T03:44:05.949Z,7.57
2019-03-03T03:45:05.914Z,7.57
2019-03-03T03:46:05.895Z,7.58
2019-03-03T03:47:05.884Z,7.49
2019-03-03T03:48:05.873Z,7.65
2019-03-03T03:49:05.872Z,7.58
2019-03-03T03:50:05.851Z,7.55
2019-03-03T03:51:05.843Z,7.64
2019-03-03T03:52:05.827Z,7.57
2019-03-03T03:53:05.814Z,7.70
2019-03-03T03:54:05.804Z,7.67
2019-03-03T03:55:05.792Z,7.70
2019-03-03T03:56:05.788Z,7.70
2019-03-03T03:57:05.778Z,7.67
2019-03-03T03:58:05.763Z,7.57
2019-03-03T03:59:05.748Z,7.70
2019-03-03T04:00:05.735Z,7.75
2019-03-03T04:01:05.724Z,7.62
2019-03-03T04:02:05.717Z,7.67
2019-03-03T04:03:05.700Z,7.70
2019-03-03T04:04:05.696Z,7.68
2019-03-03T04:05:05.679Z,7.64
2019-03-03T04:06:05.671Z,7.52
2019-03-03T04:07:05.659Z,7.67
2019-03-03T04:08:05.645Z,7.68
2019-03-03T04:09:05.636Z,7.64
2019-03-03T04:10:05.628Z,7.65
2019-03-03T04:11:05.611Z,7.61
2019-03-03T04:12:05.598Z,7.68
2019-03-03T04:13:05.592Z,7.73
2019-03-03T04:14:05.610Z,7.75
2019-03-03T04:15:05.563Z,7.70
2019-03-03T04:16:05.557Z,7.76
2019-03-03T04:17:05.544Z,7.70
2019-03-03T04:18:05.532Z,7.85
2019-03-03T04:19:05.519Z,7.85
2019-03-03T04:20:05.512Z,7.85
2019-03-03T04:21:05.496Z,7.85
2019-03-03T04:22:05.492Z,7.86
2019-03-03T04:23:05.473Z,7.94
2019-03-03T04:24:05.461Z,7.82
2019-03-03T04:25:05.455Z,8.00
2019-03-03T04:26:05.437Z,7.97
2019-03-03T04:27:05.430Z,7.91
2019-03-03T04:28:05.414Z,8.00
2019-03-03T04:29:05.402Z,8.09
2019-03-03T04:30:05.403Z,8.05
2019-03-03T04:31:05.380Z,8.04
2019-03-03T04:32:05.368Z,8.11
2019-03-03T04:33:05.360Z,7.97
2019-03-03T04:34:05.345Z,8.03
2019-03-03T04:35:05.336Z,8.08
2019-03-03T04:36:05.323Z,8.08
2019-03-03T04:37:05.315Z,8.05
2019-03-03T04:38:05.301Z,8.09
2019-03-03T04:39:05.288Z,8.09
2019-03-03T04:40:05.281Z,8.08
2019-03-03T04:41:05.267Z,8.05
2019-03-03T04:42:05.258Z,8.16
2019-03-03T04:43:05.242Z,8.12
2019-03-03T04:44:05.234Z,8.20
2019-03-03T04:45:05.223Z,8.15
2019-03-03T04:46:05.208Z,8.09
2019-03-03T04:47:05.198Z,8.13
2019-03-03T04:48:05.190Z,8.13
2019-03-03T04:49:05.177Z,8.19
2019-03-03T04:50:05.162Z,8.15
2019-03-03T04:51:05.152Z,8.13
2019-03-03T04:52:05.148Z,8.20
2019-03-03T04:53:05.132Z,8.05
2019-03-03T04:54:05.122Z,8.18
2019-03-03T04:55:05.107Z,8.19
2019-03-03T04:56:05.094Z,8.20
2019-03-03T04:57:05.086Z,8.18
2019-03-03T04:58:05.073Z,8.28
2019-03-03T04:59:05.059Z,8.09
2019-03-03T05:00:05.053Z,8.22
2019-03-03T05:01:05.038Z,8.20
2019-03-03T05:02:05.025Z,8.19
2019-03-03T05:03:05.013Z,8.16
2019-03-03T05:04:05.003Z,8.20
2019-03-03T05:05:04.990Z,8.23
2019-03-03T05:06:04.983Z,8.23
2019-03-03T05:07:04.969Z,8.27
2019-03-03T05:08:04.957Z,8.22
2019-03-03T05:09:04.952Z,8.25
2019-03-03T05:10:04.934Z,8.28
2019-03-03T05:11:04.927Z,8.38
2019-03-03T05:12:04.911Z,8.33
2019-03-03T05:13:04.899Z,8.37
2019-03-03T05:14:04.888Z,8.39
2019-03-03T05:15:04.876Z,8.39
2019-03-03T05:16:04.867Z,8.27
2019-03-03T05:17:04.859Z,8.39
2019-03-03T05:18:04.843Z,8.41
2019-03-03T05:19:04.830Z,8.38
2019-03-03T05:20:04.821Z,8.42
2019-03-03T05:21:04.807Z,8.42
2019-03-03T05:22:04.796Z,8.38
2019-03-03T05:23:04.785Z,8.47
2019-03-03T05:24:04.774Z,8.49
2019-03-03T05:25:04.763Z,8.41
2019-03-03T05:26:04.750Z,8.39
2019-03-03T05:27:04.742Z,8.47
2019-03-03T05:28:04.735Z,8.53
2019-03-03T05:29:04.716Z,8.56
2019-03-03T05:30:04.710Z,8.52
2019-03-03T05:31:04.693Z,8.55
2019-03-03T05:32:04.681Z,8.57
2019-03-03T05:33:04.669Z,8.52
2019-03-03T05:34:04.658Z,8.52
2019-03-03T05:35:04.650Z,8.53
2019-03-03T05:36:04.642Z,8.55
2019-03-03T05:37:04.625Z,8.68
2019-03-03T05:38:04.612Z,8.63
2019-03-03T05:39:04.603Z,8.60
2019-03-03T05:40:04.592Z,8.68
2019-03-03T05:41:04.579Z,8.63
2019-03-03T05:42:04.566Z,8.63
2019-03-03T05:43:04.558Z,8.80
2019-03-03T05:44:04.545Z,8.70
2019-03-03T05:45:04.533Z,8.65
2019-03-03T05:46:04.530Z,8.65
2019-03-03T05:47:04.511Z,8.65
2019-03-03T05:48:04.499Z,8.78
2019-03-03T05:49:04.488Z,8.70
2019-03-03T05:50:04.477Z,8.65
2019-03-03T05:51:04.483Z,8.71
2019-03-03T05:52:04.456Z,8.75
2019-03-03T05:53:04.442Z,8.74
2019-03-03T05:54:04.432Z,8.75
2019-03-03T05:55:04.417Z,8.75
2019-03-03T05:56:04.406Z,8.71
2019-03-03T05:57:04.398Z,8.78
2019-03-03T05:58:04.384Z,8.80
2019-03-03T05:59:04.375Z,8.78
2019-03-03T06:00:04.362Z,8.78
2019-03-03T06:01:04.349Z,8.88
2019-03-03T06:02:04.343Z,8.86
2019-03-03T06:03:04.326Z,8.81
2019-03-03T06:04:04.314Z,8.80
2019-03-03T06:05:04.303Z,8.86
2019-03-03T06:06:04.295Z,8.89
2019-03-03T06:07:04.281Z,8.86
2019-03-03T06:08:04.269Z,8.83
2019-03-03T06:09:04.257Z,8.85
2019-03-03T06:10:04.248Z,8.90
2019-03-03T06:11:04.235Z,8.89
2019-03-03T06:12:04.223Z,8.89
2019-03-03T06:13:04.219Z,8.88
2019-03-03T06:14:04.203Z,8.90
2019-03-03T06:15:04.189Z,8.89
2019-03-03T06:16:04.177Z,8.95
2019-03-03T06:17:04.169Z,8.92
2019-03-03T06:18:04.170Z,8.89
2019-03-03T06:19:04.168Z,8.92
2019-03-03T06:20:04.175Z,8.92
2019-03-03T06:21:04.122Z,8.86
2019-03-03T06:22:04.119Z,9.01
2019-03-03T06:23:04.122Z,8.99
2019-03-03T06:24:04.124Z,9.10
2019-03-03T06:25:04.078Z,9.10
2019-03-03T06:26:04.064Z,9.13
2019-03-03T06:27:04.051Z,9.10
2019-03-03T06:28:04.044Z,9.11
2019-03-03T06:29:04.031Z,9.15
2019-03-03T06:30:05.497Z,9.14
2019-03-03T06:31:04.008Z,9.17
2019-03-03T06:32:03.995Z,9.18
2019-03-03T06:33:03.985Z,9.21
2019-03-03T06:34:03.970Z,9.21
2019-03-03T06:35:03.963Z,9.21
2019-03-03T06:36:03.947Z,9.32
2019-03-03T06:37:03.947Z,9.21
2019-03-03T06:38:03.924Z,9.26
2019-03-03T06:39:03.913Z,9.28
2019-03-03T06:40:03.908Z,9.17
2019-03-03T06:41:03.892Z,9.26
2019-03-03T06:42:03.879Z,9.31
2019-03-03T06:43:03.871Z,9.35
2019-03-03T06:44:03.855Z,9.33
2019-03-03T06:45:03.846Z,9.35
2019-03-03T06:46:03.833Z,9.36
2019-03-03T06:47:03.822Z,9.39
2019-03-03T06:48:03.811Z,9.33
2019-03-03T06:49:03.799Z,9.35
2019-03-03T06:50:03.787Z,9.43
2019-03-03T06:51:03.782Z,9.53
2019-03-03T06:52:03.768Z,9.44
2019-03-03T06:53:03.762Z,9.50
2019-03-03T06:54:03.744Z,9.50
2019-03-03T06:55:03.737Z,9.65
2019-03-03T06:56:03.723Z,9.56
2019-03-03T06:57:03.713Z,9.56
2019-03-03T06:58:03.701Z,9.61
2019-03-03T06:59:03.693Z,9.65
2019-03-03T07:00:03.673Z,9.66
2019-03-03T07:01:03.663Z,9.66
2019-03-03T07:02:03.653Z,9.74
2019-03-03T07:03:03.649Z,9.69
2019-03-03T07:04:03.633Z,9.74
2019-03-03T07:05:03.618Z,9.83
2019-03-03T07:06:03.608Z,9.77
2019-03-03T07:07:03.600Z,9.83
2019-03-03T07:08:03.591Z,9.88
2019-03-03T07:09:03.572Z,9.84
2019-03-03T07:10:03.563Z,9.90
2019-03-03T07:11:03.552Z,9.91
2019-03-03T07:12:03.541Z,9.90
2019-03-03T07:13:03.527Z,9.98
2019-03-03T07:14:03.515Z,9.94
2019-03-03T07:15:03.505Z,10.06
2019-03-03T07:16:03.495Z,10.03
2019-03-03T07:17:03.485Z,9.99
2019-03-03T07:18:03.479Z,10.10
2019-03-03T07:19:03.471Z,10.16
2019-03-03T07:20:03.448Z,10.23
2019-03-03T07:21:03.438Z,10.10
2019-03-03T07:22:03.427Z,10.16
2019-03-03T07:23:03.415Z,10.21
2019-03-03T07:24:03.405Z,10.17
2019-03-03T07:25:03.394Z,10.18
2019-03-03T07:26:03.391Z,10.17
2019-03-03T07:27:03.372Z,10.16
2019-03-03T07:28:03.365Z,10.21
2019-03-03T07:29:03.353Z,10.23
2019-03-03T07:30:03.342Z,10.26
2019-03-03T07:31:03.330Z,10.20
2019-03-03T07:32:03.327Z,10.35
2019-03-03T07:33:03.307Z,10.23
2019-03-03T07:34:03.299Z,10.34
2019-03-03T07:35:03.287Z,10.28
2019-03-03T07:36:03.274Z,10.35
2019-03-03T07:37:03.262Z,10.38
2019-03-03T07:38:03.251Z,10.41
2019-03-03T07:39:03.243Z,10.42
2019-03-03T07:40:03.235Z,10.42
2019-03-03T07:41:03.220Z,10.42
2019-03-03T07:42:03.206Z,10.45
2019-03-03T07:43:03.195Z,10.49
2019-03-03T07:44:03.184Z,10.60
2019-03-03T07:45:04.620Z,10.56
2019-03-03T07:46:03.171Z,10.53
2019-03-03T07:47:03.152Z,10.63
2019-03-03T07:48:03.143Z,10.63
2019-03-03T07:49:03.126Z,10.61
2019-03-03T07:50:03.122Z,10.59
2019-03-03T07:51:03.109Z,10.63
2019-03-03T07:52:03.109Z,10.63
2019-03-03T07:53:03.087Z,10.59
2019-03-03T07:54:03.071Z,10.72
2019-03-03T07:55:03.061Z,10.67
2019-03-03T07:56:03.048Z,10.74
2019-03-03T07:57:03.037Z,10.74
2019-03-03T07:58:03.028Z,10.77
2019-03-03T07:59:03.017Z,10.84
2019-03-03T08:00:03.003Z,10.77
2019-03-03T08:01:02.989Z,10.84
2019-03-03T08:02:02.980Z,10.92
2019-03-03T08:03:02.969Z,10.97
2019-03-03T08:04:02.959Z,10.93
2019-03-03T08:05:02.955Z,10.85
2019-03-03T08:06:02.934Z,10.97
2019-03-03T08:07:02.929Z,10.97
2019-03-03T08:08:02.914Z,11.02
2019-03-03T08:09:02.902Z,10.99
2019-03-03T08:10:02.895Z,11.07
2019-03-03T08:11:02.886Z,11.14
2019-03-03T08:12:02.865Z,11.07
2019-03-03T08:13:09.249Z,11.12
2019-03-03T08:14:03.868Z,11.19
2019-03-03T08:15:02.832Z,11.19
2019-03-03T08:16:02.823Z,11.14
2019-03-03T08:17:02.816Z,11.14
2019-03-03T08:18:02.799Z,11.17
2019-03-03T08:19:02.789Z,11.19
2019-03-03T08:20:02.776Z,11.15
2019-03-03T08:21:02.763Z,11.25
2019-03-03T08:22:02.753Z,11.31
2019-03-03T08:23:02.748Z,11.30
2019-03-03T08:24:02.738Z,11.30
2019-03-03T08:25:02.720Z,11.31
2019-03-03T08:26:02.705Z,11.37
2019-03-03T08:27:02.693Z,11.31
2019-03-03T08:28:02.685Z,11.40
2019-03-03T08:29:02.672Z,11.37
2019-03-03T08:30:02.674Z,11.34
2019-03-03T08:31:02.649Z,11.37
2019-03-03T08:32:02.636Z,11.34
2019-03-03T08:33:02.629Z,11.40
2019-03-03T08:34:02.620Z,11.49
2019-03-03T08:35:02.604Z,11.45
2019-03-03T08:36:02.593Z,11.56
2019-03-03T08:37:02.578Z,11.58
2019-03-03T08:38:02.569Z,11.58
2019-03-03T08:39:02.558Z,11.69
2019-03-03T08:40:02.545Z,11.61
2019-03-03T08:41:02.534Z,11.70
2019-03-03T08:42:02.523Z,11.64
2019-03-03T08:43:04.104Z,11.62
2019-03-03T08:44:02.498Z,11.64
2019-03-03T08:45:02.489Z,11.58
2019-03-03T08:46:02.478Z,11.59
2019-03-03T08:47:02.461Z,11.61
2019-03-03T08:48:02.450Z,11.59
2019-03-03T08:49:02.438Z,11.62
2019-03-03T08:50:02.432Z,11.71
2019-03-03T08:51:02.413Z,11.66
2019-03-03T08:52:02.405Z,11.69
2019-03-03T08:53:02.394Z,11.71
2019-03-03T08:54:02.383Z,11.74
2019-03-03T08:55:02.372Z,11.73
2019-03-03T08:56:02.354Z,11.69
2019-03-03T08:57:02.345Z,11.74
2019-03-03T08:58:02.335Z,11.77
2019-03-03T08:59:02.319Z,11.73
2019-03-03T09:00:02.309Z,11.89
2019-03-03T09:01:02.304Z,11.88
2019-03-03T09:02:02.290Z,11.88
2019-03-03T09:03:02.274Z,11.87
2019-03-03T09:04:02.260Z,11.92
2019-03-03T09:05:02.250Z,11.89
2019-03-03T09:06:02.240Z,11.88
2019-03-03T09:07:02.229Z,11.92
2019-03-03T09:08:02.218Z,12.06
2019-03-03T09:09:02.207Z,12.03
2019-03-03T09:10:02.191Z,12.16
2019-03-03T09:11:02.179Z,12.13
2019-03-03T09:12:02.169Z,11.95
2019-03-03T09:13:02.155Z,12.02
2019-03-03T09:14:02.144Z,11.89
2019-03-03T09:15:02.131Z,11.88
2019-03-03T09:16:02.135Z,11.79
2019-03-03T09:17:02.109Z,11.82
2019-03-03T09:18:02.095Z,11.76
2019-03-03T09:19:02.085Z,11.74
2019-03-03T09:20:02.072Z,11.71
2019-03-03T09:21:02.063Z,11.71
2019-03-03T09:22:02.054Z,11.76
2019-03-03T09:23:02.041Z,11.77
2019-03-03T09:24:02.025Z,11.76
2019-03-03T09:25:02.013Z,11.73
2019-03-03T09:26:02.002Z,11.82
2019-03-03T09:27:01.999Z,11.85
2019-03-03T09:28:01.984Z,11.76
2019-03-03T09:29:01.968Z,11.77
2019-03-03T09:30:01.961Z,11.77
2019-03-03T09:31:01.956Z,11.80
2019-03-03T09:32:01.938Z,11.80
2019-03-03T09:33:01.918Z,11.85
2019-03-03T09:34:01.912Z,11.89
2019-03-03T09:35:01.901Z,11.88
2019-03-03T09:36:01.883Z,11.88
2019-03-03T09:37:01.873Z,12.02
2019-03-03T09:38:01.867Z,11.98
2019-03-03T09:39:01.879Z,12.10
2019-03-03T09:40:09.072Z,12.03
2019-03-03T09:41:26.302Z,12.06
2019-03-03T09:42:26.291Z,12.13
2019-03-03T09:43:26.278Z,12.17
2019-03-03T09:44:26.269Z,12.17
2019-03-03T09:45:26.264Z,12.21
2019-03-03T09:46:26.244Z,12.16
2019-03-03T09:47:26.234Z,12.27
2019-03-03T09:48:26.223Z,12.28
2019-03-03T09:49:26.226Z,12.35
2019-03-03T09:50:26.199Z,12.40
2019-03-03T09:51:26.196Z,12.35
2019-03-03T09:52:26.176Z,12.46
2019-03-03T09:53:26.171Z,12.43
2019-03-03T09:54:26.153Z,12.47
2019-03-03T09:55:26.147Z,12.43
2019-03-03T09:56:26.131Z,12.61
2019-03-03T09:57:26.118Z,12.68
2019-03-03T09:58:26.109Z,12.63
2019-03-03T09:59:26.105Z,12.68
2019-03-03T10:00:26.084Z,12.66
2019-03-03T10:01:26.073Z,12.61
2019-03-03T10:02:26.063Z,12.58
2019-03-03T10:03:26.048Z,12.68
2019-03-03T10:04:26.043Z,12.71
2019-03-03T10:05:26.027Z,12.63
2019-03-03T10:06:26.021Z,12.65
2019-03-03T10:07:26.007Z,12.52
2019-03-03T10:08:25.998Z,12.54
2019-03-03T10:09:25.980Z,12.57
2019-03-03T10:10:25.970Z,12.66
2019-03-03T10:11:25.960Z,12.71
2019-03-03T10:12:26.717Z,12.83
2019-03-03T10:13:25.934Z,12.96
2019-03-03T10:14:25.936Z,12.90
2019-03-03T10:15:25.923Z,12.91
2019-03-03T10:16:25.902Z,12.79
2019-03-03T10:17:25.890Z,12.80
2019-03-03T10:18:25.882Z,12.72
2019-03-03T10:19:25.866Z,12.76
2019-03-03T10:20:25.858Z,12.73
2019-03-03T10:21:25.848Z,12.65
2019-03-03T10:22:25.840Z,12.60
2019-03-03T10:23:25.829Z,12.58
2019-03-03T10:24:25.813Z,12.66
2019-03-03T10:25:25.809Z,12.80
2019-03-03T10:26:25.796Z,12.84
2019-03-03T10:27:25.778Z,12.79
2019-03-03T10:28:25.767Z,12.57
2019-03-03T10:29:25.757Z,12.60
2019-03-03T10:30:25.747Z,12.53
2019-03-03T10:31:25.736Z,12.61
2019-03-03T10:32:25.723Z,12.71
2019-03-03T10:33:25.713Z,12.84
2019-03-03T10:34:25.706Z,12.84
2019-03-03T10:35:25.691Z,13.01
2019-03-03T10:36:25.678Z,13.04
2019-03-03T10:37:25.671Z,13.06
2019-03-03T10:38:25.656Z,13.06
2019-03-03T10:39:25.646Z,12.93
2019-03-03T10:40:25.636Z,12.86
2019-03-03T10:41:25.630Z,12.80
2019-03-03T10:42:27.764Z,12.76
2019-03-03T10:43:25.629Z,12.72
2019-03-03T10:44:25.592Z,12.65
2019-03-03T10:45:25.589Z,12.66
2019-03-03T10:46:25.568Z,12.69
2019-03-03T10:47:25.558Z,12.81
2019-03-03T10:48:25.548Z,12.93
2019-03-03T10:49:25.540Z,12.93
2019-03-03T10:50:25.527Z,13.06
2019-03-03T10:51:25.514Z,13.04
2019-03-03T10:52:25.504Z,13.14
2019-03-03T10:53:25.491Z,13.20
2019-03-03T10:54:25.496Z,13.11
2019-03-03T10:55:25.470Z,13.20
2019-03-03T10:56:25.459Z,13.21
2019-03-03T10:57:25.449Z,13.26
2019-03-03T10:58:25.438Z,13.38
2019-03-03T10:59:25.425Z,13.29
2019-03-03T11:00:25.413Z,13.26
2019-03-03T11:01:25.410Z,13.29
2019-03-03T11:02:25.391Z,13.30
2019-03-03T11:03:25.381Z,13.29
2019-03-03T11:04:25.370Z,13.38
2019-03-03T11:05:25.361Z,13.42
2019-03-03T11:06:25.354Z,13.50
2019-03-03T11:07:25.340Z,13.46
2019-03-03T11:08:25.325Z,13.54
2019-03-03T11:09:25.315Z,13.63
2019-03-03T11:10:25.303Z,13.66
2019-03-03T11:11:25.292Z,13.75
2019-03-03T11:12:25.282Z,13.60
2019-03-03T11:13:25.269Z,13.66
2019-03-03T11:14:25.260Z,13.64
2019-03-03T11:15:25.246Z,13.64
2019-03-03T11:16:25.241Z,13.63
2019-03-03T11:17:25.227Z,13.62
2019-03-03T11:18:25.224Z,13.62
2019-03-03T11:19:25.232Z,13.57
2019-03-03T11:20:25.194Z,13.60
2019-03-03T11:21:25.193Z,13.70
2019-03-03T11:22:25.194Z,13.64
2019-03-03T11:23:25.202Z,13.70
2019-03-03T11:24:25.207Z,13.63
2019-03-03T11:25:25.147Z,13.60
2019-03-03T11:26:25.149Z,13.70
2019-03-03T11:27:25.154Z,13.62
2019-03-03T11:28:25.165Z,13.45
2019-03-03T11:29:25.096Z,13.35
2019-03-03T11:30:25.080Z,13.37
2019-03-03T11:31:25.069Z,13.42
2019-03-03T11:32:25.058Z,13.42
2019-03-03T11:33:25.048Z,13.45
2019-03-03T11:34:25.036Z,13.52
2019-03-03T11:35:25.025Z,13.59
2019-03-03T11:36:25.015Z,13.70
2019-03-03T11:37:25.003Z,13.64
2019-03-03T11:38:24.994Z,13.63
2019-03-03T11:39:25.001Z,13.75
2019-03-03T11:40:24.973Z,13.75
2019-03-03T11:41:24.961Z,13.82
2019-03-03T11:42:24.948Z,13.82
2019-03-03T11:43:24.936Z,13.70
2019-03-03T11:44:24.927Z,13.72
2019-03-03T11:45:24.914Z,13.71
2019-03-03T11:46:24.958Z,13.79
2019-03-03T11:47:24.893Z,13.84
2019-03-03T11:48:24.881Z,13.75
2019-03-03T11:49:24.875Z,13.85
2019-03-03T11:50:24.859Z,13.82
2019-03-03T11:51:24.858Z,13.90
2019-03-03T11:52:24.838Z,13.85
2019-03-03T11:53:24.829Z,13.74
2019-03-03T11:54:24.814Z,13.66
2019-03-03T11:55:24.812Z,13.64
2019-03-03T11:56:24.792Z,13.77
2019-03-03T11:57:24.784Z,13.77
2019-03-03T11:58:24.770Z,13.75
2019-03-03T11:59:24.759Z,13.77
2019-03-03T12:00:24.749Z,13.67
2019-03-03T12:01:24.739Z,13.70
2019-03-03T12:02:24.727Z,13.70
2019-03-03T12:03:24.718Z,13.63
2019-03-03T12:04:24.705Z,13.59
2019-03-03T12:05:24.692Z,13.57
2019-03-03T12:06:24.686Z,13.56
2019-03-03T12:07:24.675Z,13.66
2019-03-03T12:08:24.662Z,13.56
2019-03-03T12:09:24.654Z,13.53
2019-03-03T12:10:24.647Z,13.42
2019-03-03T12:11:24.627Z,13.38
2019-03-03T12:12:24.616Z,13.48
2019-03-03T12:13:24.611Z,13.48
2019-03-03T12:14:24.593Z,13.45
2019-03-03T12:15:24.588Z,13.56
2019-03-03T12:16:24.571Z,13.52
2019-03-03T12:17:24.558Z,13.52
2019-03-03T12:18:24.808Z,13.48
2019-03-03T12:19:24.541Z,13.56
2019-03-03T12:20:24.526Z,13.59
2019-03-03T12:21:24.515Z,13.56
2019-03-03T12:22:24.503Z,13.66
2019-03-03T12:23:24.496Z,13.72
2019-03-03T12:24:24.483Z,13.64
2019-03-03T12:25:24.469Z,13.74
2019-03-03T12:26:24.458Z,13.52
2019-03-03T12:27:24.452Z,13.53
2019-03-03T12:28:24.441Z,13.44
2019-03-03T12:29:24.426Z,13.45
2019-03-03T12:30:24.419Z,13.46
2019-03-03T12:31:24.402Z,13.29
2019-03-03T12:32:24.393Z,13.27
2019-03-03T12:33:24.381Z,13.35
2019-03-03T12:34:24.373Z,13.39
2019-03-03T12:35:24.361Z,13.45
2019-03-03T12:36:24.345Z,13.53
2019-03-03T12:37:24.338Z,13.53
2019-03-03T12:38:24.325Z,13.54
2019-03-03T12:39:24.314Z,13.35
2019-03-03T12:40:24.302Z,13.21
2019-03-03T12:41:24.292Z,13.16
2019-03-03T12:42:24.278Z,13.06
2019-03-03T12:43:24.272Z,13.05
2019-03-03T12:44:24.260Z,13.01
2019-03-03T12:45:24.245Z,13.02
2019-03-03T12:46:24.238Z,12.90
2019-03-03T12:47:24.268Z,12.91
2019-03-03T12:48:24.214Z,13.02
2019-03-03T12:49:24.203Z,13.06
2019-03-03T12:50:24.190Z,13.08
2019-03-03T12:51:24.182Z,13.20
2019-03-03T12:52:24.169Z,13.30
2019-03-03T12:53:24.157Z,13.29
2019-03-03T12:54:24.148Z,13.29
2019-03-03T12:55:24.138Z,13.20
2019-03-03T12:56:24.125Z,13.23
2019-03-03T12:57:24.113Z,13.16
2019-03-03T12:58:24.101Z,13.29
2019-03-03T12:59:24.091Z,13.38
2019-03-03T13:00:24.082Z,13.53
2019-03-03T13:01:24.068Z,13.56
2019-03-03T13:02:24.060Z,13.66
2019-03-03T13:03:24.046Z,13.64
2019-03-03T13:04:24.033Z,13.67
2019-03-03T13:05:24.029Z,13.72
2019-03-03T13:06:24.637Z,13.77